< < Back
Terminal Aerodrome Forecast


Current Version              Previous Versions:   1  2  3  4  5  6  7  8  9  

Terminal Aerodrome Forecast

346
FTUS42 KMLB 111124
TAFMCO
TAF
KMCO 111124Z 1112/1212 32005KT P6SM SKC
     FM120000 24005KT P6SM SKC=



Latest METAR

871
SAUS70 KWBC 111458
MTRMCO
METAR KMCO 111453Z 35010KT 10SM CLR 12/M04 A3035 RMK AO2 SLP277
T01221044 51007


USA.gov is the U.S. government's official web portal to all federal, state and local government web resources and services.